Time,TemperatureF,DewpointF,PressureIn,WindDirection,WindDirectionDegrees,WindSpeedMPH,WindSpeedGustMPH,Humidity,HourlyPrecipIn,Conditions,Clouds,dailyrainin,SolarRadiationWatts/m^2,SoftwareType,DateUTC
2013-05-19 00:05:00,51.1,49.1,30.28,SW,230,0.0,3.0,93,0.00,,,0.01,0.0,meteohub,2013-05-19 07:05:00,
2013-05-19 00:10:00,51.1,49.1,30.28,SW,230,0.0,3.0,93,0.00,,,0.00,0.0,meteohub,2013-05-19 07:10:00,
2013-05-19 00:15:00,51.1,49.1,30.28,WSW,240,0.0,2.0,93,0.00,,,0.00,0.0,meteohub,2013-05-19 07:15:00,
2013-05-19 00:20:00,51.1,49.5,30.28,WSW,248,3.0,3.0,94,0.00,,,0.00,0.0,meteohub,2013-05-19 07:20:00,
2013-05-19 00:25:00,50.7,49.1,30.28,WSW,248,0.0,3.0,94,0.00,,,0.00,0.0,meteohub,2013-05-19 07:25:00,
2013-05-19 00:30:00,50.7,49.1,30.29,WSW,248,0.0,4.0,94,0.00,,,0.00,0.0,meteohub,2013-05-19 07:30:00,
2013-05-19 00:35:00,50.7,49.1,30.28,WSW,248,0.0,4.0,94,0.00,,,0.00,0.0,meteohub,2013-05-19 07:35:00,
2013-05-19 00:40:00,50.7,49.1,30.29,WSW,248,0.0,3.0,94,0.00,,,0.00,0.0,meteohub,2013-05-19 07:40:00,
2013-05-19 00:45:00,50.7,49.1,30.29,WSW,248,0.0,3.0,94,0.00,,,0.00,0.0,meteohub,2013-05-19 07:45:00,
2013-05-19 00:50:00,50.7,49.1,30.29,WSW,248,0.0,1.0,94,0.00,,,0.00,0.0,meteohub,2013-05-19 07:50:00,
2013-05-19 00:55:00,50.7,49.3,30.29,WSW,248,0.0,2.0,95,0.00,,,0.00,0.0,meteohub,2013-05-19 07:55:00,
2013-05-19 01:00:00,50.7,49.3,30.29,WSW,248,0.0,4.0,95,0.00,,,0.00,0.0,meteohub,2013-05-19 08:00:00,
2013-05-19 01:05:00,50.7,49.3,30.29,WSW,248,0.0,4.0,95,0.00,,,0.00,0.0,meteohub,2013-05-19 08:05:00,
2013-05-19 01:10:00,50.7,49.3,30.29,WSW,248,0.0,4.0,95,0.00,,,0.00,0.0,meteohub,2013-05-19 08:10:00,
2013-05-19 01:15:00,50.7,49.3,30.30,WSW,248,0.0,1.0,95,0.00,,,0.00,0.0,meteohub,2013-05-19 08:15:00,
2013-05-19 01:20:00,50.7,49.3,30.29,WSW,248,0.0,1.0,95,0.00,,,0.00,0.0,meteohub,2013-05-19 08:20:00,
2013-05-19 01:25:00,50.7,49.3,30.30,WSW,248,0.0,1.0,95,0.00,,,0.00,0.0,meteohub,2013-05-19 08:25:00,
2013-05-19 01:30:00,50.7,49.3,30.30,WSW,248,0.0,1.0,95,0.00,,,0.00,0.0,meteohub,2013-05-19 08:30:00,
2013-05-19 01:35:00,50.7,49.3,30.30,WSW,248,0.0,1.0,95,0.00,,,0.00,0.0,meteohub,2013-05-19 08:35:00,
2013-05-19 01:40:00,50.7,49.3,30.30,WSW,248,1.0,0.0,95,0.00,,,0.00,0.0,meteohub,2013-05-19 08:40:00,
2013-05-19 01:45:00,50.7,49.3,30.30,WSW,248,0.0,1.0,95,0.00,,,0.00,0.0,meteohub,2013-05-19 08:45:00,
2013-05-19 01:50:00,50.7,49.3,30.30,WSW,248,0.0,2.0,95,0.00,,,0.00,0.0,meteohub,2013-05-19 08:50:00,
2013-05-19 01:55:00,50.7,49.3,30.30,WSW,248,0.0,3.0,95,0.00,,,0.00,0.0,meteohub,2013-05-19 08:55:00,
2013-05-19 02:00:00,50.5,49.1,30.30,WSW,248,0.0,3.0,95,0.00,,,0.00,0.0,meteohub,2013-05-19 09:00:00,
2013-05-19 02:05:00,50.5,49.1,30.30,WSW,248,0.0,3.0,95,0.00,,,0.00,0.0,meteohub,2013-05-19 09:05:00,
2013-05-19 02:10:00,50.4,48.9,30.30,WSW,248,0.0,3.0,95,0.00,,,0.00,0.0,meteohub,2013-05-19 09:10:00,
2013-05-19 02:15:00,50.4,48.9,30.30,WSW,248,0.0,3.0,95,0.00,,,0.00,0.0,meteohub,2013-05-19 09:15:00,
2013-05-19 02:20:00,50.4,48.9,30.31,WSW,248,0.0,3.0,95,0.00,,,0.00,0.0,meteohub,2013-05-19 09:20:00,
2013-05-19 02:25:00,50.4,48.9,30.31,WSW,248,0.0,1.0,95,0.00,,,0.00,0.0,meteohub,2013-05-19 09:25:00,
2013-05-19 02:30:00,50.4,49.3,30.31,WSW,248,1.0,1.0,96,0.00,,,0.00,0.0,meteohub,2013-05-19 09:30:00,
2013-05-19 02:35:00,50.2,48.7,30.31,WSW,248,0.0,3.0,95,0.00,,,0.00,0.0,meteohub,2013-05-19 09:35:00,
2013-05-19 02:40:00,50.2,49.1,30.31,WSW,248,0.0,3.0,96,0.00,,,0.00,0.0,meteohub,2013-05-19 09:40:00,
2013-05-19 02:45:00,50.2,49.1,30.31,WSW,248,1.0,3.0,96,0.00,,,0.00,0.0,meteohub,2013-05-19 09:45:00,
2013-05-19 02:50:00,50.2,49.1,30.31,WSW,248,0.0,1.0,96,0.00,,,0.00,0.0,meteohub,2013-05-19 09:50:00,
2013-05-19 02:56:00,50.2,49.1,30.31,WSW,248,0.0,1.0,96,0.00,,,0.00,0.0,meteohub,2013-05-19 09:56:00,
2013-05-19 03:01:00,50.2,49.1,30.32,WSW,248,0.0,1.0,96,0.00,,,0.00,0.0,meteohub,2013-05-19 10:01:00,
2013-05-19 03:06:00,50.2,49.1,30.32,WSW,248,0.0,1.0,96,0.00,,,0.00,0.0,meteohub,2013-05-19 10:06:00,
2013-05-19 03:11:00,50.2,49.1,30.31,WSW,248,0.0,2.0,96,0.00,,,0.00,0.0,meteohub,2013-05-19 10:11:00,
2013-05-19 03:16:00,50.2,49.1,30.32,WSW,248,0.0,2.0,96,0.00,,,0.00,0.0,meteohub,2013-05-19 10:16:00,
2013-05-19 03:21:00,50.2,49.1,30.32,WSW,248,0.0,2.0,96,0.00,,,0.00,0.0,meteohub,2013-05-19 10:21:00,
2013-05-19 03:26:00,50.2,49.1,30.32,WSW,248,0.0,2.0,96,0.00,,,0.00,0.0,meteohub,2013-05-19 10:26:00,
2013-05-19 03:31:00,50.2,49.1,30.32,WSW,248,0.0,1.0,96,0.00,,,0.00,0.0,meteohub,2013-05-19 10:31:00,
2013-05-19 03:36:00,50.2,49.1,30.32,WSW,248,0.0,0.0,96,0.00,,,0.00,0.0,meteohub,2013-05-19 10:36:00,
2013-05-19 03:41:00,50.2,49.1,30.32,WSW,248,0.0,0.0,96,0.00,,,0.00,0.0,meteohub,2013-05-19 10:41:00,
2013-05-19 03:46:00,50.2,49.1,30.32,WSW,248,0.0,1.0,96,0.00,,,0.00,0.0,meteohub,2013-05-19 10:46:00,
2013-05-19 03:51:00,50.2,49.1,30.32,WSW,248,0.0,1.0,96,0.00,,,0.00,0.0,meteohub,2013-05-19 10:51:00,
2013-05-19 03:56:00,49.8,48.7,30.33,WSW,248,0.0,1.0,96,0.00,,,0.00,0.0,meteohub,2013-05-19 10:56:00,
2013-05-19 04:01:00,49.8,48.7,30.33,WSW,248,0.0,1.0,96,0.00,,,0.00,0.0,meteohub,2013-05-19 11:01:00,
2013-05-19 04:06:00,49.8,48.7,30.33,WSW,248,0.0,1.0,96,0.00,,,0.00,0.0,meteohub,2013-05-19 11:06:00,
2013-05-19 04:11:00,49.8,48.7,30.33,WSW,248,1.0,3.0,96,0.00,,,0.00,0.0,meteohub,2013-05-19 11:11:00,
2013-05-19 04:16:00,49.8,48.7,30.33,WSW,248,0.0,3.0,96,0.00,,,0.00,0.0,meteohub,2013-05-19 11:16:00,
2013-05-19 04:21:00,49.8,48.7,30.33,WSW,248,0.0,1.0,96,0.00,,,0.00,0.0,meteohub,2013-05-19 11:21:00,
2013-05-19 04:26:00,49.8,48.7,30.33,WSW,248,0.0,1.0,96,0.00,,,0.00,0.0,meteohub,2013-05-19 11:26:00,
2013-05-19 04:31:00,49.8,48.9,30.34,WSW,248,0.0,1.0,97,0.00,,,0.00,0.0,meteohub,2013-05-19 11:31:00,
2013-05-19 04:36:00,49.8,48.9,30.34,WSW,248,0.0,2.0,97,0.00,,,0.00,0.0,meteohub,2013-05-19 11:36:00,
2013-05-19 04:41:00,49.8,48.7,30.34,WSW,248,0.0,2.0,96,0.00,,,0.00,0.0,meteohub,2013-05-19 11:41:00,
2013-05-19 04:46:00,49.8,48.7,30.34,WSW,248,1.0,2.0,96,0.00,,,0.00,0.0,meteohub,2013-05-19 11:46:00,
2013-05-19 04:51:00,49.8,48.7,30.34,WSW,248,1.0,2.0,96,0.00,,,0.00,0.0,meteohub,2013-05-19 11:51:00,
2013-05-19 04:56:00,49.8,48.7,30.35,WSW,248,1.0,2.0,96,0.00,,,0.00,0.0,meteohub,2013-05-19 11:56:00,
2013-05-19 05:01:00,49.6,48.6,30.34,WSW,248,0.0,2.0,96,0.00,,,0.00,0.0,meteohub,2013-05-19 12:01:00,
2013-05-19 05:06:00,49.5,48.6,30.34,WSW,248,0.0,2.0,97,0.00,,,0.00,0.0,meteohub,2013-05-19 12:06:00,
2013-05-19 05:11:00,49.5,48.4,30.34,WSW,248,0.0,2.0,96,0.00,,,0.00,0.0,meteohub,2013-05-19 12:11:00,
2013-05-19 05:16:00,49.5,48.6,30.34,WSW,248,0.0,1.0,97,0.00,,,0.00,0.0,meteohub,2013-05-19 12:16:00,
2013-05-19 05:21:00,49.5,48.6,30.35,WSW,248,0.0,1.0,97,0.00,,,0.00,0.0,meteohub,2013-05-19 12:21:00,
2013-05-19 05:26:00,49.5,48.6,30.35,WSW,248,0.0,1.0,97,0.00,,,0.00,0.0,meteohub,2013-05-19 12:26:00,
2013-05-19 05:31:00,49.5,48.6,30.35,WSW,248,0.0,1.0,97,0.00,,,0.00,0.0,meteohub,2013-05-19 12:31:00,
2013-05-19 05:37:00,49.5,48.6,30.35,WSW,248,0.0,1.0,97,0.00,,,0.00,0.0,meteohub,2013-05-19 12:37:00,
2013-05-19 05:42:00,49.5,48.6,30.35,WSW,248,1.0,2.0,97,0.00,,,0.00,5.0,meteohub,2013-05-19 12:42:00,
2013-05-19 05:47:00,49.6,48.7,30.35,WSW,248,0.0,3.0,97,0.00,,,0.00,7.0,meteohub,2013-05-19 12:47:00,
2013-05-19 05:52:00,49.6,48.7,30.35,WSW,248,0.0,3.0,97,0.00,,,0.00,9.0,meteohub,2013-05-19 12:52:00,
2013-05-19 05:57:00,49.6,48.7,30.35,WSW,248,0.0,3.0,97,0.00,,,0.00,12.0,meteohub,2013-05-19 12:57:00,
2013-05-19 06:02:00,49.5,48.6,30.35,WSW,248,0.0,1.0,97,0.00,,,0.00,14.0,meteohub,2013-05-19 13:02:00,
2013-05-19 06:07:00,49.6,48.7,30.35,WSW,248,1.0,1.0,97,0.00,,,0.00,12.0,meteohub,2013-05-19 13:07:00,
2013-05-19 06:12:00,49.6,48.7,30.35,WSW,248,0.0,2.0,97,0.00,,,0.00,18.0,meteohub,2013-05-19 13:12:00,
2013-05-19 06:17:00,49.8,48.9,30.35,WSW,248,2.0,2.0,97,0.00,,,0.00,25.0,meteohub,2013-05-19 13:17:00,
2013-05-19 06:22:00,49.8,48.9,30.35,WSW,248,0.0,2.0,97,0.00,,,0.00,32.0,meteohub,2013-05-19 13:22:00,
2013-05-19 06:27:00,49.8,48.9,30.36,WSW,248,0.0,2.0,97,0.00,,,0.00,32.0,meteohub,2013-05-19 13:27:00,
2013-05-19 06:32:00,49.8,48.9,30.36,WSW,248,0.0,2.0,97,0.00,,,0.00,37.0,meteohub,2013-05-19 13:32:00,
2013-05-19 06:37:00,49.8,48.9,30.36,WSW,248,0.0,0.0,97,0.00,,,0.00,39.0,meteohub,2013-05-19 13:37:00,
2013-05-19 06:42:00,49.8,48.9,30.36,WSW,248,0.0,1.0,97,0.00,,,0.00,46.0,meteohub,2013-05-19 13:42:00,
2013-05-19 06:47:00,50.2,49.3,30.36,WSW,248,1.0,1.0,97,0.00,,,0.00,51.0,meteohub,2013-05-19 13:47:00,
2013-05-19 06:52:00,50.2,49.3,30.36,WSW,249,0.0,2.0,97,0.00,,,0.00,54.0,meteohub,2013-05-19 13:52:00,
2013-05-19 06:57:00,50.2,49.3,30.36,WSW,249,0.0,3.0,97,0.00,,,0.00,56.0,meteohub,2013-05-19 13:57:00,
2013-05-19 07:02:00,50.2,49.3,30.36,WSW,249,0.0,3.0,97,0.00,,,0.00,62.0,meteohub,2013-05-19 14:02:00,
2013-05-19 07:07:00,50.2,49.3,30.36,WSW,249,1.0,3.0,97,0.00,,,0.00,70.0,meteohub,2013-05-19 14:07:00,
2013-05-19 07:12:00,50.2,49.3,30.36,WSW,249,1.0,3.0,97,0.00,,,0.00,88.0,meteohub,2013-05-19 14:12:00,
2013-05-19 07:17:00,50.4,49.5,30.36,WSW,249,1.0,3.0,97,0.00,,,0.00,88.0,meteohub,2013-05-19 14:17:00,
2013-05-19 07:22:00,50.5,49.6,30.36,WSW,249,2.0,3.0,97,0.00,,,0.00,84.0,meteohub,2013-05-19 14:22:00,
2013-05-19 07:27:00,50.5,49.5,30.37,WSW,249,1.0,3.0,96,0.00,,,0.00,91.0,meteohub,2013-05-19 14:27:00,
2013-05-19 07:32:00,50.7,49.6,30.37,WSW,249,1.0,3.0,96,0.00,,,0.00,104.0,meteohub,2013-05-19 14:32:00,
2013-05-19 07:37:00,50.7,49.3,30.37,WSW,249,0.0,3.0,95,0.00,,,0.00,111.0,meteohub,2013-05-19 14:37:00,
2013-05-19 07:42:00,51.1,49.6,30.37,WSW,249,0.0,3.0,95,0.00,,,0.00,123.0,meteohub,2013-05-19 14:42:00,
2013-05-19 07:47:00,51.1,49.6,30.37,WSW,249,0.0,2.0,95,0.00,,,0.00,132.0,meteohub,2013-05-19 14:47:00,
2013-05-19 07:52:00,51.6,50.0,30.37,WSW,249,0.0,2.0,94,0.00,,,0.00,141.0,meteohub,2013-05-19 14:52:00,
2013-05-19 07:57:00,51.6,49.6,30.37,WSW,249,0.0,2.0,93,0.00,,,0.00,158.0,meteohub,2013-05-19 14:57:00,
2013-05-19 08:02:00,52.0,49.5,30.37,WSW,249,0.0,1.0,91,0.00,,,0.00,165.0,meteohub,2013-05-19 15:02:00,
2013-05-19 08:07:00,52.5,50.0,30.37,WSW,249,0.0,1.0,91,0.00,,,0.00,176.0,meteohub,2013-05-19 15:07:00,
2013-05-19 08:12:00,53.1,49.8,30.37,WSW,249,2.0,2.0,89,0.00,,,0.00,185.0,meteohub,2013-05-19 15:12:00,
2013-05-19 08:17:00,53.2,49.8,30.37,WSW,254,2.0,3.0,88,0.00,,,0.00,197.0,meteohub,2013-05-19 15:17:00,
2013-05-19 08:22:00,53.6,49.8,30.37,West,269,1.0,3.0,87,0.00,,,0.00,207.0,meteohub,2013-05-19 15:22:00,
2013-05-19 08:27:00,53.8,49.6,30.37,West,269,1.0,4.0,86,0.00,,,0.00,197.0,meteohub,2013-05-19 15:27:00,
2013-05-19 08:32:00,54.0,49.8,30.37,West,269,1.0,4.0,86,0.00,,,0.00,202.0,meteohub,2013-05-19 15:32:00,
2013-05-19 08:37:00,54.1,49.8,30.37,West,273,0.0,3.0,85,0.00,,,0.00,207.0,meteohub,2013-05-19 15:37:00,
2013-05-19 08:42:00,54.1,49.5,30.37,West,273,1.0,3.0,84,0.00,,,0.00,211.0,meteohub,2013-05-19 15:42:00,
2013-05-19 08:47:00,53.8,49.1,30.37,West,273,0.0,2.0,84,0.00,,,0.00,220.0,meteohub,2013-05-19 15:47:00,
2013-05-19 08:52:00,53.8,48.4,30.37,West,273,0.0,2.0,82,0.00,,,0.00,229.0,meteohub,2013-05-19 15:52:00,
2013-05-19 08:57:00,54.3,48.6,30.37,West,273,0.0,2.0,81,0.00,,,0.00,243.0,meteohub,2013-05-19 15:57:00,
2013-05-19 09:02:00,54.9,48.6,30.37,West,273,0.0,2.0,79,0.00,,,0.00,257.0,meteohub,2013-05-19 16:02:00,
2013-05-19 09:07:00,55.0,48.6,30.37,West,273,2.0,2.0,79,0.00,,,0.00,281.0,meteohub,2013-05-19 16:07:00,
2013-05-19 09:12:00,55.0,48.9,30.37,West,273,1.0,2.0,80,0.00,,,0.00,315.0,meteohub,2013-05-19 16:12:00,
2013-05-19 09:17:00,55.2,49.1,30.37,West,273,0.0,2.0,80,0.00,,,0.00,422.0,meteohub,2013-05-19 16:17:00,
2013-05-19 09:22:00,55.9,49.5,30.37,West,273,0.0,2.0,79,0.00,,,0.00,341.0,meteohub,2013-05-19 16:22:00,
2013-05-19 09:27:00,56.7,49.1,30.36,West,279,0.0,3.0,76,0.00,,,0.00,323.0,meteohub,2013-05-19 16:27:00,
2013-05-19 09:32:00,56.8,48.9,30.37,West,281,2.0,3.0,75,0.00,,,0.00,316.0,meteohub,2013-05-19 16:32:00,
2013-05-19 09:37:00,56.8,48.9,30.37,WNW,282,0.0,4.0,75,0.00,,,0.00,329.0,meteohub,2013-05-19 16:37:00,
2013-05-19 09:42:00,57.0,49.5,30.36,WNW,282,0.0,4.0,76,0.00,,,0.00,332.0,meteohub,2013-05-19 16:42:00,
2013-05-19 09:47:00,56.8,48.9,30.37,WNW,282,1.0,4.0,75,0.00,,,0.00,330.0,meteohub,2013-05-19 16:47:00,
2013-05-19 09:52:00,56.7,49.1,30.37,WNW,282,0.0,3.0,76,0.00,,,0.00,329.0,meteohub,2013-05-19 16:52:00,
2013-05-19 09:57:00,56.8,48.9,30.36,WNW,282,1.0,3.0,75,0.00,,,0.00,330.0,meteohub,2013-05-19 16:57:00,
2013-05-19 10:02:00,57.2,49.3,30.36,WNW,282,0.0,2.0,75,0.00,,,0.00,336.0,meteohub,2013-05-19 17:02:00,
2013-05-19 10:07:00,57.4,48.4,30.36,WNW,282,0.0,3.0,72,0.00,,,0.00,334.0,meteohub,2013-05-19 17:07:00,
2013-05-19 10:12:00,57.7,48.4,30.36,WNW,282,1.0,3.0,71,0.00,,,0.00,336.0,meteohub,2013-05-19 17:12:00,
2013-05-19 10:17:00,57.7,48.0,30.36,NW,316,0.0,3.0,70,0.00,,,0.00,336.0,meteohub,2013-05-19 17:17:00,
2013-05-19 10:22:00,57.9,48.6,30.36,NW,316,0.0,4.0,71,0.00,,,0.00,339.0,meteohub,2013-05-19 17:22:00,
2013-05-19 10:27:00,57.7,48.4,30.36,NW,316,1.0,4.0,71,0.00,,,0.00,346.0,meteohub,2013-05-19 17:27:00,
2013-05-19 10:32:00,57.7,48.4,30.36,NW,316,0.0,4.0,71,0.00,,,0.00,348.0,meteohub,2013-05-19 17:32:00,
2013-05-19 10:37:00,57.6,48.2,30.36,NW,316,0.0,2.0,71,0.00,,,0.00,353.0,meteohub,2013-05-19 17:37:00,
2013-05-19 10:42:00,58.1,48.4,30.36,NW,316,0.0,2.0,70,0.00,,,0.00,360.0,meteohub,2013-05-19 17:42:00,
2013-05-19 10:47:00,58.6,47.7,30.36,NW,316,0.0,3.0,67,0.00,,,0.00,376.0,meteohub,2013-05-19 17:47:00,
2013-05-19 10:52:00,58.6,48.6,30.36,NW,316,1.0,3.0,69,0.00,,,0.00,366.0,meteohub,2013-05-19 17:52:00,
2013-05-19 10:57:00,58.6,48.2,30.36,NW,316,0.0,3.0,68,0.00,,,0.00,348.0,meteohub,2013-05-19 17:57:00,
2013-05-19 11:02:00,57.9,47.8,30.36,NW,316,1.0,2.0,69,0.00,,,0.00,334.0,meteohub,2013-05-19 18:02:00,
2013-05-19 11:07:00,57.9,48.6,30.36,SW,231,0.0,3.0,71,0.00,,,0.00,334.0,meteohub,2013-05-19 18:07:00,
2013-05-19 11:12:00,58.3,48.9,30.36,SW,231,2.0,3.0,71,0.00,,,0.00,318.0,meteohub,2013-05-19 18:12:00,
2013-05-19 11:17:00,58.1,48.4,30.36,SW,231,0.0,4.0,70,0.00,,,0.00,313.0,meteohub,2013-05-19 18:17:00,
2013-05-19 11:22:00,58.3,48.2,30.36,SW,232,0.0,4.0,69,0.00,,,0.00,309.0,meteohub,2013-05-19 18:22:00,
2013-05-19 11:27:00,58.8,47.5,30.36,NW,311,2.0,4.0,66,0.00,,,0.00,304.0,meteohub,2013-05-19 18:27:00,
2013-05-19 11:32:00,59.4,47.7,30.36,NW,311,0.0,4.0,65,0.00,,,0.00,313.0,meteohub,2013-05-19 18:32:00,
2013-05-19 11:37:00,58.8,48.2,30.36,NW,311,0.0,4.0,68,0.00,,,0.00,323.0,meteohub,2013-05-19 18:37:00,
2013-05-19 11:42:00,58.8,47.8,30.36,NW,311,1.0,4.0,67,0.00,,,0.00,338.0,meteohub,2013-05-19 18:42:00,
2013-05-19 11:47:00,59.0,47.7,30.36,NW,311,0.0,2.0,66,0.00,,,0.00,345.0,meteohub,2013-05-19 18:47:00,
2013-05-19 11:52:00,59.4,47.7,30.35,NW,311,0.0,2.0,65,0.00,,,0.00,357.0,meteohub,2013-05-19 18:52:00,
2013-05-19 11:57:00,59.4,48.0,30.35,NW,311,0.0,3.0,66,0.00,,,0.00,362.0,meteohub,2013-05-19 18:57:00,
2013-05-19 12:02:00,60.1,48.2,30.35,NW,311,1.0,3.0,65,0.00,,,0.00,367.0,meteohub,2013-05-19 19:02:00,
2013-05-19 12:07:00,60.6,47.5,30.35,NW,311,0.0,3.0,62,0.00,,,0.00,385.0,meteohub,2013-05-19 19:07:00,
2013-05-19 12:12:00,60.4,48.2,30.35,NW,311,2.0,3.0,64,0.00,,,0.00,380.0,meteohub,2013-05-19 19:12:00,
2013-05-19 12:17:00,61.2,49.6,30.35,NW,311,1.0,3.0,66,0.00,,,0.00,387.0,meteohub,2013-05-19 19:17:00,
2013-05-19 12:22:00,61.3,49.1,30.35,NW,311,3.0,4.0,64,0.00,,,0.00,397.0,meteohub,2013-05-19 19:22:00,
2013-05-19 12:27:00,61.5,48.4,30.35,NNW,348,4.0,5.0,62,0.00,,,0.00,396.0,meteohub,2013-05-19 19:27:00,
2013-05-19 12:32:00,61.5,48.7,30.35,NW,314,2.0,5.0,63,0.00,,,0.00,385.0,meteohub,2013-05-19 19:32:00,
2013-05-19 12:37:00,62.1,48.0,30.35,WNW,296,3.0,5.0,60,0.00,,,0.00,376.0,meteohub,2013-05-19 19:37:00,
2013-05-19 12:42:00,62.2,48.6,30.35,WNW,284,2.0,6.0,61,0.00,,,0.00,352.0,meteohub,2013-05-19 19:42:00,
2013-05-19 12:47:00,62.4,48.4,30.35,WNW,283,3.0,6.0,60,0.00,,,0.00,327.0,meteohub,2013-05-19 19:47:00,
2013-05-19 12:52:00,61.9,48.2,30.35,SW,236,3.0,6.0,61,0.00,,,0.00,327.0,meteohub,2013-05-19 19:52:00,
2013-05-19 12:57:00,61.5,48.0,30.35,West,280,3.0,9.0,61,0.00,,,0.00,315.0,meteohub,2013-05-19 19:57:00,
2013-05-19 13:02:00,61.5,48.7,30.35,West,281,4.0,9.0,63,0.00,,,0.00,308.0,meteohub,2013-05-19 20:02:00,
2013-05-19 13:07:00,61.5,48.0,30.35,WNW,285,4.0,9.0,61,0.00,,,0.00,308.0,meteohub,2013-05-19 20:07:00,
2013-05-19 13:12:00,61.5,48.0,30.35,West,273,4.0,9.0,61,0.00,,,0.00,322.0,meteohub,2013-05-19 20:12:00,
2013-05-19 13:17:00,61.5,48.0,30.35,West,266,2.0,12.0,61,0.00,,,0.00,341.0,meteohub,2013-05-19 20:17:00,
2013-05-19 13:22:00,61.5,48.0,30.35,WNW,298,5.0,12.0,61,0.00,,,0.00,336.0,meteohub,2013-05-19 20:22:00,
2013-05-19 13:27:00,61.5,47.5,30.35,WNW,283,6.0,10.0,60,0.00,,,0.00,334.0,meteohub,2013-05-19 20:27:00,
2013-05-19 13:32:00,61.5,47.1,30.35,West,279,1.0,10.0,59,0.00,,,0.00,336.0,meteohub,2013-05-19 20:32:00,
2013-05-19 13:37:00,61.5,47.5,30.35,WNW,284,2.0,10.0,60,0.00,,,0.00,329.0,meteohub,2013-05-19 20:37:00,
2013-05-19 13:42:00,61.5,47.5,30.36,West,268,5.0,10.0,60,0.00,,,0.00,315.0,meteohub,2013-05-19 20:42:00,
2013-05-19 13:47:00,61.5,47.5,30.35,West,269,4.0,11.0,60,0.00,,,0.00,306.0,meteohub,2013-05-19 20:47:00,
2013-05-19 13:52:00,61.5,47.5,30.35,WNW,284,6.0,11.0,60,0.00,,,0.00,306.0,meteohub,2013-05-19 20:52:00,
2013-05-19 13:57:00,61.5,48.0,30.36,NW,318,5.0,11.0,61,0.00,,,0.00,294.0,meteohub,2013-05-19 20:57:00,
2013-05-19 14:02:00,61.2,47.7,30.36,WNW,288,6.0,12.0,61,0.00,,,0.00,278.0,meteohub,2013-05-19 21:02:00,
2013-05-19 14:07:00,61.0,47.5,30.36,WSW,244,4.0,13.0,61,0.00,,,0.00,264.0,meteohub,2013-05-19 21:07:00,
2013-05-19 14:12:00,60.6,47.5,30.36,West,270,4.0,15.0,62,0.00,,,0.00,262.0,meteohub,2013-05-19 21:12:00,
2013-05-19 14:17:00,60.6,48.0,30.36,WNW,291,5.0,15.0,63,0.00,,,0.00,265.0,meteohub,2013-05-19 21:17:00,
2013-05-19 14:22:00,61.0,48.4,30.37,WNW,292,10.0,15.0,63,0.00,,,0.00,258.0,meteohub,2013-05-19 21:22:00,
2013-05-19 14:27:00,60.6,48.4,30.37,WNW,296,4.0,13.0,64,0.00,,,0.00,253.0,meteohub,2013-05-19 21:27:00,
2013-05-19 14:32:00,60.6,48.0,30.37,West,276,7.0,12.0,63,0.00,,,0.00,237.0,meteohub,2013-05-19 21:32:00,
2013-05-19 14:37:00,60.4,48.2,30.37,West,269,5.0,12.0,64,0.00,,,0.00,221.0,meteohub,2013-05-19 21:37:00,
2013-05-19 14:42:00,60.4,48.2,30.37,NW,320,4.0,11.0,64,0.00,,,0.00,218.0,meteohub,2013-05-19 21:42:00,
2013-05-19 14:47:00,60.3,48.4,30.37,WNW,285,4.0,11.0,65,0.00,,,0.00,214.0,meteohub,2013-05-19 21:47:00,
2013-05-19 14:52:00,60.1,48.7,30.37,NW,316,1.0,11.0,66,0.00,,,0.00,213.0,meteohub,2013-05-19 21:52:00,
2013-05-19 14:57:00,60.3,48.4,30.37,NW,307,0.0,10.0,65,0.00,,,0.00,209.0,meteohub,2013-05-19 21:57:00,
2013-05-19 15:02:00,60.3,48.4,30.37,WNW,293,2.0,12.0,65,0.00,,,0.00,206.0,meteohub,2013-05-19 22:02:00,
2013-05-19 15:07:00,60.3,48.0,30.37,NNW,336,10.0,12.0,64,0.00,,,0.00,197.0,meteohub,2013-05-19 22:07:00,
2013-05-19 15:12:00,60.3,48.0,30.37,West,269,4.0,12.0,64,0.00,,,0.00,188.0,meteohub,2013-05-19 22:12:00,
2013-05-19 15:17:00,60.3,48.0,30.38,NNW,336,1.0,10.0,64,0.00,,,0.00,176.0,meteohub,2013-05-19 22:17:00,
2013-05-19 15:22:00,60.3,48.0,30.38,WNW,285,6.0,10.0,64,0.00,,,0.00,171.0,meteohub,2013-05-19 22:22:00,
2013-05-19 15:27:00,60.1,48.2,30.38,West,269,4.0,11.0,65,0.00,,,0.00,160.0,meteohub,2013-05-19 22:27:00,
2013-05-19 15:32:00,59.9,48.0,30.38,West,273,8.0,11.0,65,0.00,,,0.00,156.0,meteohub,2013-05-19 22:32:00,
2013-05-19 15:37:00,59.9,48.6,30.38,WNW,291,6.0,11.0,66,0.00,,,0.00,162.0,meteohub,2013-05-19 22:37:00,
2013-05-19 15:42:00,59.7,48.0,30.38,NW,315,2.0,11.0,65,0.00,,,0.00,169.0,meteohub,2013-05-19 22:42:00,
2013-05-19 15:47:00,59.5,48.2,30.38,SW,227,7.0,13.0,66,0.00,,,0.00,167.0,meteohub,2013-05-19 22:47:00,
2013-05-19 15:52:00,59.5,48.6,30.38,NW,317,5.0,13.0,67,0.00,,,0.00,163.0,meteohub,2013-05-19 22:52:00,
2013-05-19 15:57:00,59.5,48.6,30.38,West,262,1.0,10.0,67,0.00,,,0.00,171.0,meteohub,2013-05-19 22:57:00,
2013-05-19 16:02:00,59.7,48.4,30.38,WNW,290,2.0,9.0,66,0.00,,,0.00,165.0,meteohub,2013-05-19 23:02:00,
2013-05-19 16:07:00,59.9,48.6,30.38,NW,315,4.0,6.0,66,0.00,,,0.00,172.0,meteohub,2013-05-19 23:07:00,
2013-05-19 16:12:00,59.9,48.6,30.38,NW,307,5.0,11.0,66,0.00,,,0.00,176.0,meteohub,2013-05-19 23:12:00,
2013-05-19 16:17:00,59.9,48.6,30.38,NW,306,4.0,11.0,66,0.00,,,0.00,156.0,meteohub,2013-05-19 23:17:00,
2013-05-19 16:22:00,59.7,48.4,30.38,WNW,300,1.0,11.0,66,0.00,,,0.00,153.0,meteohub,2013-05-19 23:22:00,
2013-05-19 16:27:00,59.7,48.4,30.38,WNW,303,4.0,11.0,66,0.00,,,0.00,153.0,meteohub,2013-05-19 23:27:00,
2013-05-19 16:32:00,59.5,48.6,30.38,WNW,302,2.0,11.0,67,0.00,,,0.00,155.0,meteohub,2013-05-19 23:32:00,
2013-05-19 16:37:00,59.5,48.6,30.38,NW,309,1.0,12.0,67,0.00,,,0.00,162.0,meteohub,2013-05-19 23:37:00,
2013-05-19 16:42:00,59.5,48.6,30.38,NW,318,1.0,12.0,67,0.00,,,0.00,162.0,meteohub,2013-05-19 23:42:00,
2013-05-19 16:47:00,59.5,48.9,30.38,West,269,6.0,10.0,68,0.00,,,0.00,163.0,meteohub,2013-05-19 23:47:00,
2013-05-19 16:52:00,59.7,48.7,30.38,NW,306,3.0,9.0,67,0.00,,,0.00,165.0,meteohub,2013-05-19 23:52:00,
2013-05-19 16:57:00,59.9,47.7,30.38,WSW,257,6.0,9.0,64,0.00,,,0.00,171.0,meteohub,2013-05-19 23:57:00,
2013-05-19 17:02:00,59.9,48.6,30.38,NNW,329,1.0,7.0,66,0.00,,,0.00,174.0,meteohub,2013-05-20 00:02:00,
2013-05-19 17:07:00,59.7,49.1,30.38,WNW,288,2.0,7.0,68,0.00,,,0.00,185.0,meteohub,2013-05-20 00:07:00,
2013-05-19 17:12:00,59.7,48.7,30.37,NW,306,1.0,9.0,67,0.00,,,0.00,183.0,meteohub,2013-05-20 00:12:00,
2013-05-19 17:17:00,59.7,49.1,30.37,West,275,4.0,9.0,68,0.00,,,0.00,171.0,meteohub,2013-05-20 00:17:00,
2013-05-19 17:22:00,59.5,48.9,30.37,WNW,302,3.0,9.0,68,0.00,,,0.00,162.0,meteohub,2013-05-20 00:22:00,
2013-05-19 17:27:00,59.7,49.1,30.37,WSW,238,4.0,7.0,68,0.00,,,0.00,163.0,meteohub,2013-05-20 00:27:00,
2013-05-19 17:32:00,59.9,49.3,30.37,WNW,286,3.0,6.0,68,0.00,,,0.00,142.0,meteohub,2013-05-20 00:32:00,
2013-05-19 17:37:00,59.9,48.9,30.38,WNW,282,2.0,6.0,67,0.00,,,0.00,130.0,meteohub,2013-05-20 00:37:00,
2013-05-19 17:42:00,60.1,49.5,30.38,WNW,294,0.0,6.0,68,0.00,,,0.00,149.0,meteohub,2013-05-20 00:42:00,
2013-05-19 17:47:00,60.1,49.5,30.37,West,278,4.0,6.0,68,0.00,,,0.00,144.0,meteohub,2013-05-20 00:47:00,
2013-05-19 17:52:00,60.1,49.1,30.38,NW,314,5.0,6.0,67,0.00,,,0.00,118.0,meteohub,2013-05-20 00:52:00,
2013-05-19 17:57:00,59.9,48.9,30.38,NW,306,5.0,10.0,67,0.00,,,0.00,121.0,meteohub,2013-05-20 00:57:00,
2013-05-19 18:02:00,59.9,49.3,30.38,WNW,288,4.0,10.0,68,0.00,,,0.00,98.0,meteohub,2013-05-20 01:02:00,
2013-05-19 18:07:00,59.7,49.1,30.38,West,281,6.0,9.0,68,0.00,,,0.00,100.0,meteohub,2013-05-20 01:07:00,
2013-05-19 18:12:00,59.5,48.9,30.38,West,272,3.0,9.0,68,0.00,,,0.00,81.0,meteohub,2013-05-20 01:12:00,
2013-05-19 18:17:00,59.5,48.9,30.37,West,279,2.0,9.0,68,0.00,,,0.00,74.0,meteohub,2013-05-20 01:17:00,
2013-05-19 18:22:00,59.5,49.3,30.38,WNW,296,1.0,9.0,69,0.00,,,0.00,79.0,meteohub,2013-05-20 01:22:00,
2013-05-19 18:27:00,59.5,48.9,30.37,NW,311,1.0,7.0,68,0.00,,,0.00,86.0,meteohub,2013-05-20 01:27:00,
2013-05-19 18:32:00,59.4,49.1,30.37,West,269,0.0,7.0,69,0.00,,,0.00,88.0,meteohub,2013-05-20 01:32:00,
2013-05-19 18:37:00,59.4,49.1,30.37,NW,315,1.0,6.0,69,0.00,,,0.00,84.0,meteohub,2013-05-20 01:37:00,
2013-05-19 18:42:00,59.4,49.1,30.37,West,271,1.0,6.0,69,0.00,,,0.00,83.0,meteohub,2013-05-20 01:42:00,
2013-05-19 18:47:00,59.4,49.6,30.38,West,271,0.0,6.0,70,0.00,,,0.00,76.0,meteohub,2013-05-20 01:47:00,
2013-05-19 18:52:00,59.2,49.1,30.37,West,271,0.0,6.0,69,0.00,,,0.00,74.0,meteohub,2013-05-20 01:52:00,
2013-05-19 18:57:00,59.0,49.6,30.37,West,271,0.0,2.0,71,0.00,,,0.00,60.0,meteohub,2013-05-20 01:57:00,
2013-05-19 19:02:00,58.8,49.1,30.37,West,271,0.0,1.0,70,0.00,,,0.00,46.0,meteohub,2013-05-20 02:02:00,
2013-05-19 19:07:00,58.8,49.5,30.37,West,271,1.0,2.0,71,0.00,,,0.00,40.0,meteohub,2013-05-20 02:07:00,
2013-05-19 19:12:00,58.8,49.1,30.37,West,271,1.0,2.0,70,0.00,,,0.00,42.0,meteohub,2013-05-20 02:12:00,
2013-05-19 19:17:00,58.6,49.3,30.37,West,279,4.0,4.0,71,0.00,,,0.00,58.0,meteohub,2013-05-20 02:17:00,
2013-05-19 19:22:00,58.6,48.9,30.37,NW,315,2.0,4.0,70,0.00,,,0.00,49.0,meteohub,2013-05-20 02:22:00,
2013-05-19 19:27:00,58.6,49.3,30.37,NW,315,2.0,4.0,71,0.00,,,0.00,44.0,meteohub,2013-05-20 02:27:00,
2013-05-19 19:32:00,58.6,48.9,30.37,NW,315,0.0,4.0,70,0.00,,,0.00,44.0,meteohub,2013-05-20 02:32:00,
2013-05-19 19:37:00,58.6,50.4,30.37,NW,315,0.0,4.0,74,0.00,,,0.00,42.0,meteohub,2013-05-20 02:37:00,
2013-05-19 19:42:00,58.6,50.0,30.37,NW,315,1.0,3.0,73,0.00,,,0.00,40.0,meteohub,2013-05-20 02:42:00,
2013-05-19 19:47:00,58.5,49.1,30.37,NW,315,1.0,2.0,71,0.00,,,0.00,33.0,meteohub,2013-05-20 02:47:00,
2013-05-19 19:52:00,58.3,49.3,30.37,NW,315,2.0,3.0,72,0.00,,,0.00,26.0,meteohub,2013-05-20 02:52:00,
2013-05-19 19:57:00,58.3,49.3,30.37,NW,315,0.0,3.0,72,0.00,,,0.00,25.0,meteohub,2013-05-20 02:57:00,
2013-05-19 20:02:00,58.3,50.7,30.37,NW,315,0.0,3.0,76,0.00,,,0.00,19.0,meteohub,2013-05-20 03:02:00,
2013-05-19 20:07:00,58.1,50.9,30.37,NW,315,0.0,3.0,77,0.00,,,0.00,21.0,meteohub,2013-05-20 03:07:00,
2013-05-19 20:12:00,57.7,50.5,30.37,NW,315,0.0,2.0,77,0.00,,,0.00,16.0,meteohub,2013-05-20 03:12:00,
2013-05-19 20:17:00,57.6,50.7,30.37,NW,315,0.0,2.0,78,0.00,,,0.00,14.0,meteohub,2013-05-20 03:17:00,
2013-05-19 20:22:00,57.6,51.1,30.36,NW,315,0.0,0.0,79,0.00,,,0.00,9.0,meteohub,2013-05-20 03:22:00,
2013-05-19 20:27:00,57.2,50.7,30.37,NW,315,0.0,0.0,79,0.00,,,0.00,5.0,meteohub,2013-05-20 03:27:00,
2013-05-19 20:32:00,56.8,50.7,30.37,NW,315,0.0,0.0,80,0.00,,,0.00,5.0,meteohub,2013-05-20 03:32:00,
2013-05-19 20:37:00,56.7,50.5,30.36,NW,315,0.0,1.0,80,0.00,,,0.00,0.0,meteohub,2013-05-20 03:37:00,
2013-05-19 20:42:00,56.5,50.4,30.36,NW,315,0.0,1.0,80,0.00,,,0.00,0.0,meteohub,2013-05-20 03:42:00,
2013-05-19 20:47:00,56.3,50.5,30.36,NW,315,0.0,1.0,81,0.00,,,0.00,0.0,meteohub,2013-05-20 03:47:00,
2013-05-19 20:52:00,55.9,50.2,30.36,NW,315,0.0,0.0,81,0.00,,,0.00,0.0,meteohub,2013-05-20 03:52:00,
2013-05-19 20:57:00,55.9,50.5,30.36,NW,315,0.0,0.0,82,0.00,,,0.00,0.0,meteohub,2013-05-20 03:57:00,
2013-05-19 21:01:00,55.6,50.2,30.36,NW,315,0.0,0.0,82,0.00,,,0.00,0.0,meteohub,2013-05-20 04:01:00,
2013-05-19 21:02:00,55.6,50.2,30.36,NW,315,0.0,0.0,82,0.00,,,0.00,0.0,meteohub,2013-05-20 04:02:00,
2013-05-19 21:07:00,55.2,49.8,30.36,NW,315,0.0,0.0,82,0.00,,,0.00,0.0,meteohub,2013-05-20 04:07:00,
2013-05-19 21:12:00,55.0,50.0,30.36,NW,315,0.0,0.0,83,0.00,,,0.00,0.0,meteohub,2013-05-20 04:12:00,
2013-05-19 21:17:00,54.7,49.6,30.37,NW,315,0.0,1.0,83,0.00,,,0.00,0.0,meteohub,2013-05-20 04:17:00,
2013-05-19 21:22:00,54.1,49.5,30.37,NW,315,0.0,1.0,84,0.00,,,0.00,0.0,meteohub,2013-05-20 04:22:00,
2013-05-19 21:27:00,54.0,49.3,30.37,NW,315,0.0,1.0,84,0.00,,,0.00,0.0,meteohub,2013-05-20 04:27:00,
2013-05-19 21:32:00,53.6,48.9,30.37,NW,315,0.0,1.0,84,0.00,,,0.00,0.0,meteohub,2013-05-20 04:32:00,
2013-05-19 21:37:00,53.4,48.7,30.37,NW,315,0.0,0.0,84,0.00,,,0.00,0.0,meteohub,2013-05-20 04:37:00,
2013-05-19 21:42:00,53.1,48.7,30.37,NW,315,0.0,1.0,85,0.00,,,0.00,0.0,meteohub,2013-05-20 04:42:00,
2013-05-19 21:47:00,52.9,48.6,30.37,NW,315,0.0,1.0,85,0.00,,,0.00,0.0,meteohub,2013-05-20 04:47:00,
2013-05-19 21:52:00,52.5,48.4,30.37,NW,315,0.0,1.0,86,0.00,,,0.00,0.0,meteohub,2013-05-20 04:52:00,
2013-05-19 21:57:00,52.3,48.2,30.37,NW,315,0.0,1.0,86,0.00,,,0.00,0.0,meteohub,2013-05-20 04:57:00,
2013-05-19 22:02:00,52.0,48.2,30.37,NW,315,0.0,1.0,87,0.00,,,0.00,0.0,meteohub,2013-05-20 05:02:00,
2013-05-19 22:07:00,51.6,48.2,30.37,NW,315,0.0,1.0,88,0.00,,,0.00,0.0,meteohub,2013-05-20 05:07:00,
2013-05-19 22:12:00,51.6,48.6,30.37,NW,315,0.0,1.0,89,0.00,,,0.00,0.0,meteohub,2013-05-20 05:12:00,
2013-05-19 22:17:00,51.4,48.4,30.37,NW,315,0.0,1.0,89,0.00,,,0.00,0.0,meteohub,2013-05-20 05:17:00,
2013-05-19 22:22:00,51.3,48.2,30.37,NW,315,0.0,1.0,89,0.00,,,0.00,0.0,meteohub,2013-05-20 05:22:00,
2013-05-19 22:27:00,51.1,48.2,30.37,NW,315,0.0,1.0,90,0.00,,,0.00,0.0,meteohub,2013-05-20 05:27:00,
2013-05-19 22:32:00,51.1,48.0,30.37,NW,315,0.0,1.0,89,0.00,,,0.00,0.0,meteohub,2013-05-20 05:32:00,
2013-05-19 22:37:00,51.1,48.0,30.37,NW,315,0.0,1.0,89,0.00,,,0.00,0.0,meteohub,2013-05-20 05:37:00,
2013-05-19 22:42:00,50.7,47.7,30.37,NW,315,0.0,0.0,89,0.00,,,0.00,0.0,meteohub,2013-05-20 05:42:00,
2013-05-19 22:47:00,50.7,47.8,30.37,NW,315,0.0,0.0,90,0.00,,,0.00,0.0,meteohub,2013-05-20 05:47:00,
2013-05-19 22:52:00,50.5,47.5,30.36,NW,315,0.0,0.0,89,0.00,,,0.00,0.0,meteohub,2013-05-20 05:52:00,
2013-05-19 22:57:00,50.4,47.5,30.36,NW,315,0.0,0.0,90,0.00,,,0.00,0.0,meteohub,2013-05-20 05:57:00,
2013-05-19 23:02:00,50.2,47.3,30.36,NW,315,0.0,0.0,90,0.00,,,0.00,0.0,meteohub,2013-05-20 06:02:00,
2013-05-19 23:07:00,50.2,47.3,30.36,NW,315,0.0,0.0,90,0.00,,,0.00,0.0,meteohub,2013-05-20 06:07:00,
2013-05-19 23:12:00,49.8,46.9,30.36,NW,315,0.0,0.0,90,0.00,,,0.00,0.0,meteohub,2013-05-20 06:12:00,
2013-05-19 23:18:00,49.6,46.8,30.36,NW,315,0.0,0.0,90,0.00,,,0.00,0.0,meteohub,2013-05-20 06:18:00,
2013-05-19 23:23:00,49.5,46.6,30.36,NW,315,0.0,0.0,90,0.00,,,0.00,0.0,meteohub,2013-05-20 06:23:00,
2013-05-19 23:28:00,49.5,46.6,30.37,NW,315,0.0,0.0,90,0.00,,,0.00,0.0,meteohub,2013-05-20 06:28:00,
2013-05-19 23:33:00,49.3,46.8,30.37,NW,315,0.0,0.0,91,0.00,,,0.00,0.0,meteohub,2013-05-20 06:33:00,
2013-05-19 23:38:00,49.1,46.9,30.37,NW,315,0.0,0.0,92,0.00,,,0.00,0.0,meteohub,2013-05-20 06:38:00,
2013-05-19 23:43:00,48.9,46.8,30.36,NW,315,0.0,0.0,92,0.00,,,0.00,0.0,meteohub,2013-05-20 06:43:00,
2013-05-19 23:48:00,49.1,46.9,30.36,NW,315,0.0,0.0,92,0.00,,,0.00,0.0,meteohub,2013-05-20 06:48:00,
2013-05-19 23:53:00,49.1,47.1,30.36,NW,315,0.0,0.0,93,0.00,,,0.00,0.0,meteohub,2013-05-20 06:53:00,
2013-05-19 23:58:00,49.1,47.1,30.36,NW,315,0.0,0.0,93,0.00,,,0.00,0.0,meteohub,2013-05-20 06:58:00,